createdAt,value
2018-08-07T00:00:26.037Z,10.30
2018-08-07T00:02:56.651Z,9.80
2018-08-07T00:05:27.259Z,9.48
2018-08-07T00:07:57.783Z,9.28
2018-08-07T00:10:29.108Z,9.90
2018-08-07T00:12:59.623Z,9.20
2018-08-07T00:15:30.375Z,9.63
2018-08-07T00:18:00.925Z,9.68
2018-08-07T00:20:31.731Z,9.40
2018-08-07T00:23:02.791Z,9.23
2018-08-07T00:25:33.623Z,8.88
2018-08-07T00:28:04.113Z,8.80
2018-08-07T00:30:35.367Z,9.18
2018-08-07T00:33:05.836Z,8.50
2018-08-07T00:35:36.267Z,9.00
2018-08-07T00:38:07.001Z,8.70
2018-08-07T00:40:37.751Z,8.90
2018-08-07T00:43:08.183Z,8.78
2018-08-07T00:45:38.887Z,8.10
2018-08-07T00:48:09.384Z,8.28
2018-08-07T00:50:40.510Z,7.53
2018-08-07T00:53:11.145Z,7.33
2018-08-07T00:55:41.595Z,7.15
2018-08-07T00:58:12.007Z,7.40
2018-08-07T01:00:42.535Z,6.75
2018-08-07T01:03:13.077Z,7.37
2018-08-07T01:05:43.868Z,7.37
2018-08-07T01:08:14.595Z,6.80
2018-08-07T01:10:44.961Z,6.67
2018-08-07T01:16:52.662Z,6.30
2018-08-07T01:19:23.152Z,6.60
2018-08-07T01:21:53.659Z,6.00
2018-08-07T01:24:24.169Z,6.30
2018-08-07T01:26:55.319Z,5.85
2018-08-07T01:29:26.200Z,5.37
2018-08-07T01:31:56.654Z,6.00
2018-08-07T01:34:27.251Z,6.17
2018-08-07T01:36:57.704Z,5.97
2018-08-07T01:39:28.128Z,6.58
2018-08-07T01:41:58.503Z,6.40
2018-08-07T01:44:28.929Z,6.62
2018-08-07T01:46:59.597Z,6.22
2018-08-07T01:49:30.087Z,6.42
2018-08-07T01:52:00.772Z,6.33
2018-08-07T01:54:31.229Z,6.78
2018-08-07T01:57:02.456Z,6.53
2018-08-07T01:59:33.553Z,6.37
2018-08-07T02:02:03.999Z,7.15
2018-08-07T02:04:34.570Z,6.87
2018-08-07T02:07:05.331Z,6.35
2018-08-07T02:09:35.784Z,7.00
2018-08-07T02:12:06.386Z,6.37
2018-08-07T02:14:36.818Z,6.70
2018-08-07T02:17:08.012Z,6.60
2018-08-07T02:19:38.481Z,6.15
2018-08-07T02:22:09.267Z,6.72
2018-08-07T02:24:39.964Z,6.03
2018-08-07T02:27:10.476Z,6.30
2018-08-07T02:29:41.058Z,6.78
2018-08-07T02:32:11.455Z,6.65
2018-08-07T02:34:42.284Z,6.53
2018-08-07T02:37:12.674Z,6.33
2018-08-07T02:39:43.478Z,6.58
2018-08-07T02:42:13.901Z,6.40
2018-08-07T02:44:44.762Z,6.10
2018-08-07T02:47:15.438Z,6.28
2018-08-07T02:49:45.906Z,6.53
2018-08-07T02:52:16.382Z,6.10
2018-08-07T02:54:47.324Z,6.65
2018-08-07T02:57:17.776Z,6.15
2018-08-07T02:59:49.460Z,6.08
2018-08-07T03:02:19.868Z,5.70
2018-08-07T03:04:50.381Z,5.62
2018-08-07T03:07:21.306Z,6.05
2018-08-07T03:09:51.728Z,5.75
2018-08-07T03:12:23.194Z,5.92
2018-08-07T03:14:53.836Z,6.03
2018-08-07T03:17:24.584Z,5.50
2018-08-07T03:19:55.096Z,6.03
2018-08-07T03:22:25.838Z,5.87
2018-08-07T03:24:56.810Z,6.20
2018-08-07T03:27:27.258Z,6.08
2018-08-07T03:29:57.692Z,5.80
2018-08-07T03:32:28.098Z,5.42
2018-08-07T03:34:58.535Z,6.62
2018-08-07T03:37:30.072Z,7.60
2018-08-07T03:40:00.574Z,7.50
2018-08-07T03:42:30.966Z,7.42
2018-08-07T03:45:01.557Z,7.12
2018-08-07T03:47:32.074Z,7.40
2018-08-07T03:50:03.054Z,7.33
2018-08-07T03:52:33.482Z,7.00
2018-08-07T03:55:03.969Z,6.47
2018-08-07T03:57:34.436Z,6.37
2018-08-07T04:00:07.803Z,6.50
2018-08-07T04:02:39.832Z,6.37
2018-08-07T04:05:10.590Z,6.95
2018-08-07T04:07:41.072Z,6.30
2018-08-07T04:10:14.286Z,6.22
2018-08-07T04:12:44.894Z,5.85
2018-08-07T04:15:17.736Z,5.95
2018-08-07T04:17:48.304Z,6.25
2018-08-07T04:20:19.910Z,5.97
2018-08-07T04:22:50.375Z,6.35
2018-08-07T04:25:21.048Z,6.00
2018-08-07T04:27:51.462Z,6.50
2018-08-07T04:30:21.926Z,6.40
2018-08-07T04:32:52.415Z,6.28
2018-08-07T04:35:22.794Z,6.25
2018-08-07T04:37:53.228Z,6.78
2018-08-07T04:40:24.238Z,6.95
2018-08-07T04:42:54.570Z,6.42
2018-08-07T04:45:25.953Z,6.50
2018-08-07T04:47:56.650Z,6.10
2018-08-07T04:50:27.489Z,6.17
2018-08-07T04:52:57.890Z,5.97
2018-08-07T04:55:28.570Z,6.37
2018-08-07T04:57:59.479Z,6.17
2018-08-07T05:00:30.379Z,6.00
2018-08-07T05:03:00.816Z,6.45
2018-08-07T05:05:31.154Z,5.90
2018-08-07T05:08:01.565Z,6.03
2018-08-07T05:10:32.125Z,6.28
2018-08-07T05:13:02.706Z,12.82
2018-08-07T05:15:33.144Z,7.08
2018-08-07T05:18:03.922Z,6.50
2018-08-07T05:20:34.384Z,5.80
2018-08-07T05:23:05.201Z,6.00
2018-08-07T05:25:36.534Z,5.90
2018-08-07T05:28:07.547Z,6.33
2018-08-07T05:30:38.984Z,6.40
2018-08-07T05:33:09.850Z,6.17
2018-08-07T05:35:40.706Z,6.70
2018-08-07T05:38:10.774Z,6.42
2018-08-07T05:40:41.253Z,5.85
2018-08-07T05:43:11.851Z,6.03
2018-08-07T05:45:42.576Z,5.72
2018-08-07T05:48:13.329Z,5.87
2018-08-07T05:50:44.957Z,6.15
2018-08-07T05:53:15.391Z,6.05
2018-08-07T05:55:45.842Z,6.62
2018-08-07T05:58:16.917Z,7.40
2018-08-07T06:00:47.701Z,6.92
2018-08-07T06:03:19.237Z,6.55
2018-08-07T06:05:49.990Z,6.35
2018-08-07T06:08:20.453Z,6.15
2018-08-07T06:10:50.963Z,5.45
2018-08-07T06:13:21.548Z,5.75
2018-08-07T06:15:52.014Z,5.75
2018-08-07T06:18:23.143Z,6.03
2018-08-07T06:20:54.255Z,5.90
2018-08-07T06:23:24.617Z,5.47
2018-08-07T06:25:54.977Z,5.22
2018-08-07T06:28:29.142Z,5.10
2018-08-07T06:30:59.781Z,4.85
2018-08-07T06:33:31.261Z,5.28
2018-08-07T06:36:01.728Z,5.67
2018-08-07T06:38:32.166Z,5.47
2018-08-07T06:41:02.605Z,5.25
2018-08-07T06:43:33.087Z,5.50
2018-08-07T06:46:03.609Z,5.55
2018-08-07T06:48:34.389Z,5.50
2018-08-07T06:51:05.177Z,5.70
2018-08-07T06:53:35.885Z,5.78
2018-08-07T06:56:07.046Z,5.65
2018-08-07T06:58:37.845Z,4.72
2018-08-07T07:01:08.413Z,5.33
2018-08-07T07:03:39.579Z,4.70
2018-08-07T07:06:09.973Z,4.45
2018-08-07T07:08:41.353Z,4.72
2018-08-07T07:11:12.081Z,4.80
2018-08-07T07:13:43.513Z,4.40
2018-08-07T07:16:14.271Z,4.47
2018-08-07T07:18:44.713Z,4.20
2018-08-07T07:21:15.817Z,4.20
2018-08-07T07:23:46.585Z,4.45
2018-08-07T07:26:17.142Z,4.55
2018-08-07T07:28:47.517Z,4.55
2018-08-07T07:31:17.931Z,4.22
2018-08-07T07:33:48.483Z,4.50
2018-08-07T07:36:18.912Z,4.22
2018-08-07T07:38:49.479Z,4.08
2018-08-07T07:41:19.893Z,4.08
2018-08-07T07:43:50.572Z,3.98
2018-08-07T07:46:20.957Z,3.90
2018-08-07T07:48:51.399Z,3.75
2018-08-07T07:54:58.159Z,4.03
2018-08-07T07:57:28.627Z,3.87
2018-08-07T07:59:59.129Z,3.77
2018-08-07T08:02:29.554Z,3.80
2018-08-07T08:05:00.044Z,4.10
2018-08-07T08:07:30.647Z,3.90
2018-08-07T08:10:01.199Z,3.83
2018-08-07T08:12:32.273Z,4.30
2018-08-07T08:15:02.737Z,4.53
2018-08-07T08:17:32.789Z,3.90
2018-08-07T08:20:03.478Z,4.12
2018-08-07T08:22:33.860Z,3.92
2018-08-07T08:25:04.361Z,4.12
2018-08-07T08:27:35.134Z,4.12
2018-08-07T08:30:11.947Z,4.30
2018-08-07T08:32:43.472Z,3.70
2018-08-07T08:35:15.933Z,3.70
2018-08-07T08:37:46.490Z,4.00
2018-08-07T08:40:19.546Z,3.90
2018-08-07T08:42:50.242Z,4.10
2018-08-07T08:45:23.905Z,3.72
2018-08-07T08:47:57.963Z,3.95
2018-08-07T08:50:29.280Z,4.25
2018-08-07T08:52:59.680Z,4.45
2018-08-07T08:55:30.078Z,4.10
2018-08-07T08:58:00.686Z,4.37
2018-08-07T09:00:32.304Z,3.98
2018-08-07T09:03:04.272Z,4.17
2018-08-07T09:05:34.766Z,4.20
2018-08-07T09:08:05.724Z,4.15
2018-08-07T09:10:36.264Z,3.92
2018-08-07T09:16:42.148Z,3.73
2018-08-07T09:19:12.487Z,3.80
2018-08-07T09:21:42.784Z,3.97
2018-08-07T09:24:12.923Z,4.17
2018-08-07T09:26:43.048Z,3.90
2018-08-07T09:29:13.360Z,3.97
2018-08-07T09:31:43.634Z,4.03
2018-08-07T09:34:13.975Z,4.30
2018-08-07T09:36:44.438Z,4.13
2018-08-07T09:39:14.568Z,4.10
2018-08-07T09:41:44.835Z,3.80
2018-08-07T09:44:15.346Z,4.10
2018-08-07T09:46:45.533Z,4.47
2018-08-07T09:49:15.692Z,4.50
2018-08-07T09:51:45.926Z,4.70
2018-08-07T09:54:16.098Z,4.23
2018-08-07T09:56:46.503Z,4.50
2018-08-07T09:59:16.676Z,4.30
2018-08-07T10:01:51.869Z,4.47
2018-08-07T10:04:22.208Z,4.60
2018-08-07T10:06:53.060Z,4.80
2018-08-07T10:09:23.175Z,4.90
2018-08-07T10:11:53.291Z,4.40
2018-08-07T10:14:23.425Z,4.37
2018-08-07T10:16:54.845Z,4.60
2018-08-07T10:19:25.296Z,4.63
2018-08-07T10:21:55.460Z,7.63
2018-08-07T10:24:25.631Z,4.70
2018-08-07T10:26:56.145Z,4.47
2018-08-07T10:29:26.398Z,4.10
2018-08-07T10:31:56.564Z,4.30
2018-08-07T10:34:26.692Z,4.10
2018-08-07T10:36:57.136Z,4.50
2018-08-07T10:39:27.587Z,4.13
2018-08-07T10:41:57.728Z,4.20
2018-08-07T10:44:27.858Z,4.50
2018-08-07T10:46:58.046Z,4.27
2018-08-07T10:49:28.186Z,4.43
2018-08-07T10:51:59.222Z,4.93
2018-08-07T10:54:29.714Z,4.30
2018-08-07T10:56:59.852Z,4.10
2018-08-07T10:59:29.956Z,4.10
2018-08-07T11:02:00.302Z,4.47
2018-08-07T11:04:30.618Z,4.30
2018-08-07T11:07:01.108Z,4.20
2018-08-07T11:09:31.592Z,4.07
2018-08-07T11:12:01.345Z,4.40
2018-08-07T11:14:31.478Z,4.43
2018-08-07T11:17:01.760Z,4.00
2018-08-07T11:19:32.258Z,4.20
2018-08-07T11:22:02.416Z,4.43
2018-08-07T11:24:32.630Z,4.33
2018-08-07T11:27:02.909Z,4.83
2018-08-07T11:29:33.449Z,4.57
2018-08-07T11:32:04.152Z,4.43
2018-08-07T11:34:34.395Z,4.20
2018-08-07T11:37:05.965Z,4.60
2018-08-07T11:39:36.846Z,4.70
2018-08-07T11:42:07.392Z,4.50
2018-08-07T11:44:37.575Z,4.53
2018-08-07T11:47:09.973Z,4.90
2018-08-07T11:49:40.757Z,4.70
2018-08-07T11:52:11.348Z,4.77
2018-08-07T11:54:41.981Z,5.27
2018-08-07T11:57:12.169Z,4.80
2018-08-07T11:59:42.497Z,5.10
2018-08-07T12:02:14.677Z,4.80
2018-08-07T12:04:45.027Z,4.80
2018-08-07T12:07:15.811Z,4.33
2018-08-07T12:09:46.512Z,5.63
2018-08-07T12:19:28.652Z,5.63
2018-08-07T12:21:58.843Z,5.63
2018-08-07T12:24:29.086Z,5.10
2018-08-07T12:26:59.277Z,5.33
2018-08-07T12:29:29.505Z,5.43
2018-08-07T12:31:59.643Z,5.00
2018-08-07T12:34:29.836Z,4.87
2018-08-07T12:37:00.374Z,5.30
2018-08-07T12:39:30.606Z,5.70
2018-08-07T12:42:01.228Z,4.80
2018-08-07T12:44:31.449Z,4.90
2018-08-07T12:47:01.611Z,5.10
2018-08-07T12:49:31.812Z,4.97
2018-08-07T12:52:02.278Z,4.77
2018-08-07T12:58:09.450Z,4.37
2018-08-07T13:00:39.631Z,4.20
2018-08-07T13:03:10.149Z,4.50
2018-08-07T13:05:40.472Z,4.77
2018-08-07T13:08:10.608Z,4.70
2018-08-07T13:10:41.060Z,5.40
2018-08-07T13:13:11.273Z,5.17
2018-08-07T13:15:41.559Z,4.53
2018-08-07T13:18:11.728Z,4.90
2018-08-07T13:20:41.839Z,4.73
2018-08-07T13:23:12.022Z,5.13
2018-08-07T13:25:43.030Z,5.07
2018-08-07T13:28:13.504Z,5.50
2018-08-07T13:30:43.698Z,5.70
2018-08-07T13:33:14.219Z,5.20
2018-08-07T13:35:44.435Z,5.70
2018-08-07T13:38:15.272Z,5.43
2018-08-07T13:40:45.623Z,4.80
2018-08-07T13:43:15.764Z,5.60
2018-08-07T13:45:46.315Z,5.50
2018-08-07T13:48:16.499Z,5.37
2018-08-07T13:50:46.687Z,5.80
2018-08-07T13:56:52.639Z,5.33
2018-08-07T13:59:22.723Z,5.60
2018-08-07T14:01:52.977Z,5.80
2018-08-07T14:04:23.633Z,5.17
2018-08-07T14:06:54.114Z,5.90
2018-08-07T14:13:00.910Z,5.23
2018-08-07T14:15:31.355Z,5.63
2018-08-07T14:18:01.709Z,6.13
2018-08-07T14:20:31.882Z,5.40
2018-08-07T14:23:02.135Z,5.90
2018-08-07T14:25:32.957Z,5.30
2018-08-07T14:28:03.523Z,5.47
2018-08-07T14:30:33.776Z,5.67
2018-08-07T14:33:05.207Z,5.90
2018-08-07T14:35:35.393Z,6.10
2018-08-07T14:38:05.709Z,5.77
2018-08-07T14:40:36.077Z,5.73
2018-08-07T14:43:06.399Z,5.73
2018-08-07T14:45:36.907Z,5.57
2018-08-07T14:48:07.519Z,5.70
2018-08-07T14:50:37.619Z,5.63
2018-08-07T14:53:08.405Z,5.83
2018-08-07T14:55:38.613Z,5.53
2018-08-07T14:58:08.803Z,5.63
2018-08-07T15:00:39.009Z,5.40
2018-08-07T15:03:09.476Z,5.87
2018-08-07T15:05:39.976Z,5.20
2018-08-07T15:08:10.180Z,5.63
2018-08-07T15:10:41.714Z,5.80
2018-08-07T15:13:12.099Z,5.80
2018-08-07T15:15:42.252Z,5.83
2018-08-07T15:18:12.720Z,5.33
2018-08-07T15:20:43.067Z,5.90
2018-08-07T15:23:13.332Z,5.20
2018-08-07T15:25:43.550Z,5.10
2018-08-07T15:28:14.064Z,5.30
2018-08-07T15:30:44.178Z,5.40
2018-08-07T15:33:14.442Z,5.00
2018-08-07T15:35:44.908Z,5.23
2018-08-07T15:38:15.064Z,5.57
2018-08-07T15:40:45.246Z,5.03
2018-08-07T15:43:15.730Z,5.53
2018-08-07T15:45:46.301Z,5.20
2018-08-07T15:48:16.810Z,5.37
2018-08-07T15:50:47.715Z,5.30
2018-08-07T15:53:17.862Z,5.40
2018-08-07T15:55:48.062Z,5.70
2018-08-07T15:58:18.333Z,5.60
2018-08-07T16:00:48.818Z,5.10
2018-08-07T16:03:19.030Z,5.30
2018-08-07T16:05:49.232Z,5.20
2018-08-07T16:08:20.278Z,5.47
2018-08-07T16:10:51.124Z,5.00
2018-08-07T16:13:22.834Z,5.45
2018-08-07T16:15:53.254Z,5.67
2018-08-07T16:18:23.763Z,5.28
2018-08-07T16:20:54.280Z,5.40
2018-08-07T16:23:24.814Z,5.00
2018-08-07T16:25:55.592Z,5.58
2018-08-07T16:28:26.076Z,5.12
2018-08-07T16:31:40.148Z,5.55
2018-08-07T16:34:10.796Z,5.35
2018-08-07T16:36:41.388Z,4.78
2018-08-07T16:39:13.080Z,5.03
2018-08-07T16:41:44.088Z,5.10
2018-08-07T16:44:14.929Z,4.45
2018-08-07T16:46:45.802Z,5.15
2018-08-07T16:49:16.312Z,4.28
2018-08-07T16:51:46.821Z,4.17
2018-08-07T16:54:17.554Z,4.40
2018-08-07T16:56:48.098Z,4.50
2018-08-07T16:59:18.314Z,4.57
2018-08-07T17:01:48.770Z,4.20
2018-08-07T17:04:19.439Z,4.30
2018-08-07T17:06:49.981Z,4.47
2018-08-07T17:09:20.445Z,4.35
2018-08-07T17:11:50.942Z,4.10
2018-08-07T17:14:21.696Z,3.98
2018-08-07T17:16:52.359Z,4.28
2018-08-07T17:19:23.015Z,4.17
2018-08-07T17:21:53.243Z,4.10
2018-08-07T17:24:23.901Z,4.00
2018-08-07T17:26:54.413Z,3.50
2018-08-07T17:29:24.575Z,4.03
2018-08-07T17:31:55.666Z,3.90
2018-08-07T17:34:25.918Z,4.27
2018-08-07T17:36:56.175Z,3.80
2018-08-07T17:39:26.389Z,3.77
2018-08-07T17:41:56.553Z,3.77
2018-08-07T17:44:27.372Z,3.73
2018-08-07T17:46:57.692Z,3.70
2018-08-07T17:49:28.077Z,3.80
2018-08-07T17:51:58.294Z,3.90
2018-08-07T17:54:28.554Z,3.50
2018-08-07T17:56:59.816Z,3.90
2018-08-07T17:59:29.925Z,3.67
2018-08-07T18:02:00.214Z,3.37
2018-08-07T18:04:30.668Z,3.67
2018-08-07T18:09:40.223Z,3.83
2018-08-07T18:12:10.675Z,3.70
2018-08-07T18:14:41.118Z,4.03
2018-08-07T18:17:11.427Z,3.90
2018-08-07T18:26:53.685Z,4.00
2018-08-07T18:29:24.115Z,3.80
2018-08-07T18:31:54.322Z,3.67
2018-08-07T18:34:24.585Z,3.67
2018-08-07T18:36:54.799Z,3.73
2018-08-07T18:39:25.150Z,4.37
2018-08-07T18:41:55.315Z,3.90
2018-08-07T18:44:25.473Z,4.10
2018-08-07T18:46:55.619Z,4.43
2018-08-07T18:49:25.775Z,3.90
2018-08-07T18:51:56.442Z,4.20
2018-08-07T18:54:27.684Z,4.10
2018-08-07T18:56:58.556Z,3.90
2018-08-07T18:59:29.883Z,4.40
2018-08-07T19:02:00.647Z,4.45
2018-08-07T19:04:31.471Z,4.27
2018-08-07T19:07:02.023Z,4.15
2018-08-07T19:09:33.309Z,4.12
2018-08-07T19:12:04.135Z,4.05
2018-08-07T19:14:34.543Z,3.83
2018-08-07T19:17:05.015Z,3.90
2018-08-07T19:19:35.506Z,4.00
2018-08-07T19:22:06.061Z,4.08
2018-08-07T19:24:36.764Z,3.90
2018-08-07T19:27:07.253Z,4.50
2018-08-07T19:29:37.736Z,4.50
2018-08-07T19:32:08.276Z,3.98
2018-08-07T19:34:38.917Z,4.08
2018-08-07T19:37:09.715Z,4.12
2018-08-07T19:39:40.219Z,3.87
2018-08-07T19:42:10.821Z,4.20
2018-08-07T19:44:41.255Z,4.40
2018-08-07T19:47:11.673Z,4.12
2018-08-07T19:50:38.759Z,4.37
2018-08-07T19:53:09.984Z,4.30
2018-08-07T19:55:40.683Z,6.10
2018-08-07T19:58:11.628Z,4.42
2018-08-07T20:00:42.610Z,4.40
2018-08-07T20:03:13.488Z,4.47
2018-08-07T20:05:44.112Z,4.12
2018-08-07T20:08:14.733Z,4.37
2018-08-07T20:10:45.943Z,4.72
2018-08-07T20:13:16.677Z,5.03
2018-08-07T20:22:59.293Z,4.58
2018-08-07T20:25:30.066Z,4.08
2018-08-07T20:28:00.659Z,4.25
2018-08-07T20:30:32.488Z,4.00
2018-08-07T20:33:03.293Z,4.62
2018-08-07T20:35:34.148Z,4.20
2018-08-07T20:38:05.010Z,4.00
2018-08-07T20:40:35.887Z,3.92
2018-08-07T20:43:06.536Z,4.08
2018-08-07T20:45:37.280Z,4.15
2018-08-07T20:48:09.500Z,4.65
2018-08-07T20:50:40.431Z,6.42
2018-08-07T20:53:11.119Z,4.60
2018-08-07T20:55:41.902Z,4.53
2018-08-07T20:58:12.520Z,4.72
2018-08-07T21:00:43.427Z,4.70
2018-08-07T21:03:13.977Z,4.33
2018-08-07T21:05:44.436Z,4.47
2018-08-07T21:08:16.074Z,4.78
2018-08-07T21:10:49.314Z,4.70
2018-08-07T21:13:20.742Z,4.45
2018-08-07T21:15:51.397Z,4.55
2018-08-07T21:18:22.230Z,4.53
2018-08-07T21:20:52.951Z,3.87
2018-08-07T21:23:23.379Z,4.30
2018-08-07T21:25:54.011Z,4.05
2018-08-07T21:28:24.591Z,4.28
2018-08-07T21:30:55.285Z,4.30
2018-08-07T21:33:25.842Z,4.03
2018-08-07T21:35:56.410Z,4.50
2018-08-07T21:38:27.736Z,4.55
2018-08-07T21:40:58.211Z,4.37
2018-08-07T21:43:28.740Z,4.75
2018-08-07T21:45:59.298Z,4.40
2018-08-07T21:48:29.799Z,4.62
2018-08-07T21:51:00.588Z,4.83
2018-08-07T21:53:31.569Z,4.62
2018-08-07T21:56:02.060Z,4.55
2018-08-07T21:58:32.847Z,4.70
2018-08-07T22:01:04.212Z,4.45
2018-08-07T22:03:35.093Z,4.40
2018-08-07T22:06:06.658Z,4.30
2018-08-07T22:08:37.584Z,5.28
2018-08-07T22:11:43.318Z,4.90
2018-08-07T22:14:14.598Z,4.95
2018-08-07T22:16:45.790Z,5.17
2018-08-07T22:19:16.586Z,5.53
2018-08-07T22:21:47.468Z,4.67
2018-08-07T22:24:18.316Z,5.03
2018-08-07T22:26:48.752Z,4.62
2018-08-07T22:29:19.454Z,4.60
2018-08-07T22:31:49.871Z,4.83
2018-08-07T22:34:20.680Z,4.92
2018-08-07T22:36:51.330Z,4.33
2018-08-07T22:39:21.762Z,4.30
2018-08-07T22:41:52.120Z,4.65
2018-08-07T22:44:23.291Z,4.83
2018-08-07T22:46:54.196Z,4.70
2018-08-07T22:49:24.648Z,4.78
2018-08-07T22:51:55.352Z,4.80
2018-08-07T22:54:27.175Z,4.80
2018-08-07T22:56:57.688Z,5.00
2018-08-07T22:59:28.488Z,5.22
2018-08-07T23:01:59.421Z,4.62
2018-08-07T23:04:30.254Z,4.92
2018-08-07T23:07:00.702Z,5.05
2018-08-07T23:09:31.186Z,5.08
2018-08-07T23:12:02.105Z,5.28
2018-08-07T23:14:32.688Z,5.37
2018-08-07T23:17:03.186Z,4.58
2018-08-07T23:19:33.886Z,4.72
2018-08-07T23:22:04.488Z,5.15
2018-08-07T23:24:35.306Z,4.65
2018-08-07T23:27:05.806Z,4.80
2018-08-07T23:29:36.259Z,5.17
2018-08-07T23:32:06.746Z,5.35
2018-08-07T23:35:19.650Z,4.93
2018-08-07T23:37:50.174Z,4.72
2018-08-07T23:40:20.624Z,4.58
2018-08-07T23:42:51.104Z,5.00
2018-08-07T23:45:21.705Z,4.78
2018-08-07T23:47:52.240Z,4.85
2018-08-07T23:50:23.039Z,4.78
2018-08-07T23:52:53.505Z,5.05
2018-08-07T23:55:24.006Z,5.12
2018-08-07T23:57:54.625Z,5.40
